sensor_id;sensor_type;location;lat;lon;timestamp;P1;durP1;ratioP1;P2;durP2;ratioP2
45728;SDS011;31439;53.512;10.206;2023-12-14T00:01:15;5.53;;;3.25;;
45728;SDS011;31439;53.512;10.206;2023-12-14T00:03:41;7.70;;;4.10;;
45728;SDS011;31439;53.512;10.206;2023-12-14T00:06:09;5.43;;;3.45;;
45728;SDS011;31439;53.512;10.206;2023-12-14T00:08:38;7.57;;;3.40;;
45728;SDS011;31439;53.512;10.206;2023-12-14T00:11:04;5.53;;;3.72;;
45728;SDS011;31439;53.512;10.206;2023-12-14T00:13:35;6.35;;;3.50;;
45728;SDS011;31439;53.512;10.206;2023-12-14T00:16:01;5.25;;;3.10;;
45728;SDS011;31439;53.512;10.206;2023-12-14T00:18:27;6.07;;;3.38;;
45728;SDS011;31439;53.512;10.206;2023-12-14T00:20:53;6.25;;;3.13;;
45728;SDS011;31439;53.512;10.206;2023-12-14T00:23:19;6.60;;;2.97;;
45728;SDS011;31439;53.512;10.206;2023-12-14T00:25:48;4.68;;;2.92;;
45728;SDS011;31439;53.512;10.206;2023-12-14T00:28:14;5.05;;;2.72;;
45728;SDS011;31439;53.512;10.206;2023-12-14T00:30:39;4.10;;;2.60;;
45728;SDS011;31439;53.512;10.206;2023-12-14T00:33:05;5.03;;;2.65;;
45728;SDS011;31439;53.512;10.206;2023-12-14T00:35:31;6.22;;;2.90;;
45728;SDS011;31439;53.512;10.206;2023-12-14T00:37:56;6.90;;;2.88;;
45728;SDS011;31439;53.512;10.206;2023-12-14T00:40:22;5.85;;;3.08;;
45728;SDS011;31439;53.512;10.206;2023-12-14T00:42:48;5.38;;;2.67;;
45728;SDS011;31439;53.512;10.206;2023-12-14T00:45:13;5.03;;;2.78;;
45728;SDS011;31439;53.512;10.206;2023-12-14T00:47:39;6.85;;;2.75;;
45728;SDS011;31439;53.512;10.206;2023-12-14T00:50:05;4.68;;;2.55;;
45728;SDS011;31439;53.512;10.206;2023-12-14T00:52:31;4.88;;;2.25;;
45728;SDS011;31439;53.512;10.206;2023-12-14T00:54:56;4.00;;;2.13;;
45728;SDS011;31439;53.512;10.206;2023-12-14T00:57:22;4.32;;;2.20;;
45728;SDS011;31439;53.512;10.206;2023-12-14T00:59:47;4.45;;;2.00;;
45728;SDS011;31439;53.512;10.206;2023-12-14T01:02:13;4.50;;;2.47;;
45728;SDS011;31439;53.512;10.206;2023-12-14T01:04:39;8.20;;;2.85;;
45728;SDS011;31439;53.512;10.206;2023-12-14T01:07:04;4.88;;;2.63;;
45728;SDS011;31439;53.512;10.206;2023-12-14T01:09:30;6.30;;;2.85;;
45728;SDS011;31439;53.512;10.206;2023-12-14T01:11:55;4.63;;;2.38;;
45728;SDS011;31439;53.512;10.206;2023-12-14T01:14:21;4.28;;;2.10;;
45728;SDS011;31439;53.512;10.206;2023-12-14T01:16:46;4.53;;;2.38;;
45728;SDS011;31439;53.512;10.206;2023-12-14T01:19:12;3.85;;;2.10;;
45728;SDS011;31439;53.512;10.206;2023-12-14T01:21:38;4.18;;;2.13;;
45728;SDS011;31439;53.512;10.206;2023-12-14T01:24:03;3.50;;;2.10;;
45728;SDS011;31439;53.512;10.206;2023-12-14T01:26:29;6.47;;;2.10;;
45728;SDS011;31439;53.512;10.206;2023-12-14T01:28:55;4.57;;;2.00;;
45728;SDS011;31439;53.512;10.206;2023-12-14T01:31:20;3.55;;;2.20;;
45728;SDS011;31439;53.512;10.206;2023-12-14T01:33:48;3.30;;;2.05;;
45728;SDS011;31439;53.512;10.206;2023-12-14T01:36:24;3.63;;;1.92;;
45728;SDS011;31439;53.512;10.206;2023-12-14T01:38:50;3.63;;;1.90;;
45728;SDS011;31439;53.512;10.206;2023-12-14T01:41:16;3.08;;;2.20;;
45728;SDS011;31439;53.512;10.206;2023-12-14T01:43:42;3.08;;;1.58;;
45728;SDS011;31439;53.512;10.206;2023-12-14T01:46:08;3.55;;;1.95;;
45728;SDS011;31439;53.512;10.206;2023-12-14T01:48:34;4.40;;;2.33;;
45728;SDS011;31439;53.512;10.206;2023-12-14T01:51:00;4.22;;;1.88;;
45728;SDS011;31439;53.512;10.206;2023-12-14T01:53:25;4.15;;;1.90;;
45728;SDS011;31439;53.512;10.206;2023-12-14T01:55:51;2.78;;;1.77;;
45728;SDS011;31439;53.512;10.206;2023-12-14T01:58:17;3.45;;;1.88;;
45728;SDS011;31439;53.512;10.206;2023-12-14T02:00:45;3.65;;;2.17;;
45728;SDS011;31439;53.512;10.206;2023-12-14T02:03:35;3.85;;;1.88;;
45728;SDS011;31439;53.512;10.206;2023-12-14T02:06:01;4.25;;;2.08;;
45728;SDS011;31439;53.512;10.206;2023-12-14T02:08:27;2.80;;;1.80;;
45728;SDS011;31439;53.512;10.206;2023-12-14T02:10:53;3.55;;;2.05;;
45728;SDS011;31439;53.512;10.206;2023-12-14T02:13:19;5.50;;;2.03;;
45728;SDS011;31439;53.512;10.206;2023-12-14T02:15:44;4.57;;;2.05;;
45728;SDS011;31439;53.512;10.206;2023-12-14T02:18:10;4.63;;;2.00;;
45728;SDS011;31439;53.512;10.206;2023-12-14T02:20:36;3.15;;;2.22;;
45728;SDS011;31439;53.512;10.206;2023-12-14T02:23:01;3.63;;;2.10;;
45728;SDS011;31439;53.512;10.206;2023-12-14T02:25:27;3.63;;;1.60;;
45728;SDS011;31439;53.512;10.206;2023-12-14T02:27:53;4.97;;;2.00;;
45728;SDS011;31439;53.512;10.206;2023-12-14T02:30:18;3.30;;;2.00;;
45728;SDS011;31439;53.512;10.206;2023-12-14T02:32:44;4.15;;;2.15;;
45728;SDS011;31439;53.512;10.206;2023-12-14T02:35:10;3.85;;;2.30;;
45728;SDS011;31439;53.512;10.206;2023-12-14T02:37:36;3.70;;;2.20;;
45728;SDS011;31439;53.512;10.206;2023-12-14T02:40:02;3.92;;;2.47;;
45728;SDS011;31439;53.512;10.206;2023-12-14T02:42:29;3.90;;;2.33;;
45728;SDS011;31439;53.512;10.206;2023-12-14T02:44:55;6.15;;;2.17;;
45728;SDS011;31439;53.512;10.206;2023-12-14T02:47:21;6.70;;;2.20;;
45728;SDS011;31439;53.512;10.206;2023-12-14T02:49:47;3.83;;;1.90;;
45728;SDS011;31439;53.512;10.206;2023-12-14T02:52:12;3.60;;;2.40;;
45728;SDS011;31439;53.512;10.206;2023-12-14T02:54:38;4.75;;;2.22;;
45728;SDS011;31439;53.512;10.206;2023-12-14T02:57:05;4.85;;;2.40;;
45728;SDS011;31439;53.512;10.206;2023-12-14T02:59:30;3.88;;;2.03;;
45728;SDS011;31439;53.512;10.206;2023-12-14T03:01:56;6.60;;;2.95;;
45728;SDS011;31439;53.512;10.206;2023-12-14T03:04:21;5.00;;;2.40;;
45728;SDS011;31439;53.512;10.206;2023-12-14T03:06:47;7.13;;;2.90;;
45728;SDS011;31439;53.512;10.206;2023-12-14T03:09:12;4.95;;;2.65;;
45728;SDS011;31439;53.512;10.206;2023-12-14T03:11:38;6.78;;;3.28;;
45728;SDS011;31439;53.512;10.206;2023-12-14T03:14:04;8.98;;;2.70;;
45728;SDS011;31439;53.512;10.206;2023-12-14T03:16:29;5.20;;;2.40;;
45728;SDS011;31439;53.512;10.206;2023-12-14T03:18:55;6.43;;;2.03;;
45728;SDS011;31439;53.512;10.206;2023-12-14T03:21:21;4.28;;;2.40;;
45728;SDS011;31439;53.512;10.206;2023-12-14T03:23:48;4.13;;;1.92;;
45728;SDS011;31439;53.512;10.206;2023-12-14T03:26:14;3.08;;;2.10;;
45728;SDS011;31439;53.512;10.206;2023-12-14T03:28:39;5.90;;;2.30;;
45728;SDS011;31439;53.512;10.206;2023-12-14T03:31:05;5.97;;;1.92;;
45728;SDS011;31439;53.512;10.206;2023-12-14T03:33:30;5.25;;;2.08;;
45728;SDS011;31439;53.512;10.206;2023-12-14T03:35:56;5.60;;;1.95;;
45728;SDS011;31439;53.512;10.206;2023-12-14T03:38:22;4.80;;;2.17;;
45728;SDS011;31439;53.512;10.206;2023-12-14T03:40:48;5.00;;;2.15;;
45728;SDS011;31439;53.512;10.206;2023-12-14T03:43:13;4.22;;;2.13;;
45728;SDS011;31439;53.512;10.206;2023-12-14T03:45:39;4.53;;;2.00;;
45728;SDS011;31439;53.512;10.206;2023-12-14T03:48:04;5.55;;;2.00;;
45728;SDS011;31439;53.512;10.206;2023-12-14T03:50:30;3.28;;;1.75;;
45728;SDS011;31439;53.512;10.206;2023-12-14T03:52:57;4.35;;;2.40;;
45728;SDS011;31439;53.512;10.206;2023-12-14T03:55:23;5.00;;;2.30;;
45728;SDS011;31439;53.512;10.206;2023-12-14T03:57:48;5.32;;;2.47;;
45728;SDS011;31439;53.512;10.206;2023-12-14T04:00:14;6.07;;;3.08;;
45728;SDS011;31439;53.512;10.206;2023-12-14T04:02:40;6.05;;;2.70;;
45728;SDS011;31439;53.512;10.206;2023-12-14T04:05:06;5.63;;;2.50;;
45728;SDS011;31439;53.512;10.206;2023-12-14T04:07:33;5.03;;;2.92;;
45728;SDS011;31439;53.512;10.206;2023-12-14T04:10:06;4.47;;;2.58;;
45728;SDS011;31439;53.512;10.206;2023-12-14T04:12:35;6.07;;;2.83;;
45728;SDS011;31439;53.512;10.206;2023-12-14T04:15:01;5.88;;;3.03;;
45728;SDS011;31439;53.512;10.206;2023-12-14T04:17:28;5.18;;;2.97;;
45728;SDS011;31439;53.512;10.206;2023-12-14T04:19:53;6.35;;;2.70;;
45728;SDS011;31439;53.512;10.206;2023-12-14T04:22:19;5.72;;;2.58;;
45728;SDS011;31439;53.512;10.206;2023-12-14T04:24:44;5.00;;;2.53;;
45728;SDS011;31439;53.512;10.206;2023-12-14T04:27:10;6.28;;;2.67;;
45728;SDS011;31439;53.512;10.206;2023-12-14T04:29:35;6.13;;;2.72;;
45728;SDS011;31439;53.512;10.206;2023-12-14T04:32:01;6.40;;;3.20;;
45728;SDS011;31439;53.512;10.206;2023-12-14T04:34:27;5.78;;;3.00;;
45728;SDS011;31439;53.512;10.206;2023-12-14T04:36:52;5.80;;;3.15;;
45728;SDS011;31439;53.512;10.206;2023-12-14T04:39:22;5.55;;;3.00;;
45728;SDS011;31439;53.512;10.206;2023-12-14T04:41:51;6.85;;;3.33;;
45728;SDS011;31439;53.512;10.206;2023-12-14T04:44:20;4.30;;;2.28;;
45728;SDS011;31439;53.512;10.206;2023-12-14T04:46:49;4.40;;;2.97;;
45728;SDS011;31439;53.512;10.206;2023-12-14T04:49:15;5.43;;;2.80;;
45728;SDS011;31439;53.512;10.206;2023-12-14T04:51:41;5.97;;;2.92;;
45728;SDS011;31439;53.512;10.206;2023-12-14T04:54:06;5.88;;;2.50;;
45728;SDS011;31439;53.512;10.206;2023-12-14T04:56:32;6.70;;;2.85;;
45728;SDS011;31439;53.512;10.206;2023-12-14T04:58:58;5.30;;;3.08;;
45728;SDS011;31439;53.512;10.206;2023-12-14T05:01:24;6.15;;;3.17;;
45728;SDS011;31439;53.512;10.206;2023-12-14T05:03:51;5.10;;;3.17;;
45728;SDS011;31439;53.512;10.206;2023-12-14T05:06:17;6.32;;;3.33;;
45728;SDS011;31439;53.512;10.206;2023-12-14T05:08:43;5.60;;;3.33;;
45728;SDS011;31439;53.512;10.206;2023-12-14T05:11:08;7.93;;;3.75;;
45728;SDS011;31439;53.512;10.206;2023-12-14T05:13:34;5.50;;;3.50;;
45728;SDS011;31439;53.512;10.206;2023-12-14T05:16:00;7.88;;;3.28;;
45728;SDS011;31439;53.512;10.206;2023-12-14T05:18:26;5.10;;;3.22;;
45728;SDS011;31439;53.512;10.206;2023-12-14T05:20:52;8.57;;;3.75;;
45728;SDS011;31439;53.512;10.206;2023-12-14T05:23:18;8.18;;;4.57;;
45728;SDS011;31439;53.512;10.206;2023-12-14T05:25:44;10.07;;;4.00;;
45728;SDS011;31439;53.512;10.206;2023-12-14T05:28:09;6.03;;;3.63;;
45728;SDS011;31439;53.512;10.206;2023-12-14T05:30:35;7.15;;;3.97;;
45728;SDS011;31439;53.512;10.206;2023-12-14T05:33:01;7.68;;;4.53;;
45728;SDS011;31439;53.512;10.206;2023-12-14T05:35:26;9.45;;;4.53;;
45728;SDS011;31439;53.512;10.206;2023-12-14T05:37:52;6.10;;;3.17;;
45728;SDS011;31439;53.512;10.206;2023-12-14T05:40:18;5.80;;;3.65;;
45728;SDS011;31439;53.512;10.206;2023-12-14T05:42:43;6.55;;;3.53;;
45728;SDS011;31439;53.512;10.206;2023-12-14T05:45:09;6.03;;;3.83;;
45728;SDS011;31439;53.512;10.206;2023-12-14T05:47:35;5.85;;;3.97;;
45728;SDS011;31439;53.512;10.206;2023-12-14T05:50:01;5.50;;;3.97;;
45728;SDS011;31439;53.512;10.206;2023-12-14T05:52:26;8.35;;;4.28;;
45728;SDS011;31439;53.512;10.206;2023-12-14T05:54:52;7.85;;;3.67;;
45728;SDS011;31439;53.512;10.206;2023-12-14T05:57:18;8.45;;;4.60;;
45728;SDS011;31439;53.512;10.206;2023-12-14T05:59:43;7.32;;;4.22;;
45728;SDS011;31439;53.512;10.206;2023-12-14T06:02:09;7.55;;;3.40;;
45728;SDS011;31439;53.512;10.206;2023-12-14T06:04:34;5.28;;;3.15;;
45728;SDS011;31439;53.512;10.206;2023-12-14T06:07:00;6.50;;;3.63;;
45728;SDS011;31439;53.512;10.206;2023-12-14T06:09:26;8.68;;;4.30;;
45728;SDS011;31439;53.512;10.206;2023-12-14T06:11:59;5.55;;;3.88;;
45728;SDS011;31439;53.512;10.206;2023-12-14T06:14:26;6.70;;;4.05;;
45728;SDS011;31439;53.512;10.206;2023-12-14T06:16:51;8.60;;;4.63;;
45728;SDS011;31439;53.512;10.206;2023-12-14T06:19:17;7.47;;;4.85;;
45728;SDS011;31439;53.512;10.206;2023-12-14T06:21:43;7.45;;;4.65;;
45728;SDS011;31439;53.512;10.206;2023-12-14T06:24:08;9.35;;;4.70;;
45728;SDS011;31439;53.512;10.206;2023-12-14T06:26:34;9.68;;;4.80;;
45728;SDS011;31439;53.512;10.206;2023-12-14T06:29:00;10.65;;;4.47;;
45728;SDS011;31439;53.512;10.206;2023-12-14T06:31:25;8.88;;;3.88;;
45728;SDS011;31439;53.512;10.206;2023-12-14T06:33:51;6.22;;;4.25;;
45728;SDS011;31439;53.512;10.206;2023-12-14T06:36:16;6.43;;;4.50;;
45728;SDS011;31439;53.512;10.206;2023-12-14T06:38:42;8.27;;;3.85;;
45728;SDS011;31439;53.512;10.206;2023-12-14T06:41:08;10.95;;;4.65;;
45728;SDS011;31439;53.512;10.206;2023-12-14T06:43:42;7.15;;;4.20;;
45728;SDS011;31439;53.512;10.206;2023-12-14T06:46:08;9.65;;;5.20;;
45728;SDS011;31439;53.512;10.206;2023-12-14T06:48:33;8.90;;;4.50;;
45728;SDS011;31439;53.512;10.206;2023-12-14T06:50:59;9.32;;;4.60;;
45728;SDS011;31439;53.512;10.206;2023-12-14T06:53:24;8.80;;;4.90;;
45728;SDS011;31439;53.512;10.206;2023-12-14T06:55:50;7.50;;;4.72;;
45728;SDS011;31439;53.512;10.206;2023-12-14T06:58:16;9.07;;;4.25;;
45728;SDS011;31439;53.512;10.206;2023-12-14T07:00:42;5.47;;;3.72;;
45728;SDS011;31439;53.512;10.206;2023-12-14T07:03:08;5.90;;;3.55;;
45728;SDS011;31439;53.512;10.206;2023-12-14T07:05:33;7.47;;;4.13;;
45728;SDS011;31439;53.512;10.206;2023-12-14T07:07:59;6.50;;;3.50;;
45728;SDS011;31439;53.512;10.206;2023-12-14T07:10:25;5.78;;;3.65;;
45728;SDS011;31439;53.512;10.206;2023-12-14T07:12:51;6.10;;;3.60;;
45728;SDS011;31439;53.512;10.206;2023-12-14T07:15:17;6.93;;;3.80;;
45728;SDS011;31439;53.512;10.206;2023-12-14T07:17:43;8.98;;;3.60;;
45728;SDS011;31439;53.512;10.206;2023-12-14T07:20:09;7.57;;;3.83;;
45728;SDS011;31439;53.512;10.206;2023-12-14T07:22:36;9.07;;;3.83;;
45728;SDS011;31439;53.512;10.206;2023-12-14T07:25:02;7.38;;;3.70;;
45728;SDS011;31439;53.512;10.206;2023-12-14T07:27:28;5.97;;;3.70;;
45728;SDS011;31439;53.512;10.206;2023-12-14T07:29:54;9.73;;;4.10;;
45728;SDS011;31439;53.512;10.206;2023-12-14T07:32:19;8.18;;;3.67;;
45728;SDS011;31439;53.512;10.206;2023-12-14T07:34:46;7.82;;;4.18;;
45728;SDS011;31439;53.512;10.206;2023-12-14T07:37:12;8.32;;;4.18;;
45728;SDS011;31439;53.512;10.206;2023-12-14T07:39:37;8.57;;;4.07;;
45728;SDS011;31439;53.512;10.206;2023-12-14T07:42:03;10.68;;;4.63;;
45728;SDS011;31439;53.512;10.206;2023-12-14T07:44:30;6.47;;;3.90;;
45728;SDS011;31439;53.512;10.206;2023-12-14T07:46:56;7.63;;;3.80;;
45728;SDS011;31439;53.512;10.206;2023-12-14T07:49:21;8.68;;;4.30;;
45728;SDS011;31439;53.512;10.206;2023-12-14T07:51:48;8.15;;;4.50;;
45728;SDS011;31439;53.512;10.206;2023-12-14T07:54:14;8.10;;;4.35;;
45728;SDS011;31439;53.512;10.206;2023-12-14T07:56:40;8.52;;;4.43;;
45728;SDS011;31439;53.512;10.206;2023-12-14T07:59:06;8.55;;;3.88;;
45728;SDS011;31439;53.512;10.206;2023-12-14T08:01:35;7.88;;;4.32;;
45728;SDS011;31439;53.512;10.206;2023-12-14T08:04:01;9.10;;;4.68;;
45728;SDS011;31439;53.512;10.206;2023-12-14T08:06:27;8.00;;;4.78;;
45728;SDS011;31439;53.512;10.206;2023-12-14T08:08:54;7.20;;;4.53;;
45728;SDS011;31439;53.512;10.206;2023-12-14T08:11:22;8.07;;;4.30;;
45728;SDS011;31439;53.512;10.206;2023-12-14T08:13:48;8.00;;;4.50;;
45728;SDS011;31439;53.512;10.206;2023-12-14T08:16:14;10.57;;;4.65;;
45728;SDS011;31439;53.512;10.206;2023-12-14T08:18:42;10.13;;;4.68;;
45728;SDS011;31439;53.512;10.206;2023-12-14T08:21:09;7.93;;;4.38;;
45728;SDS011;31439;53.512;10.206;2023-12-14T08:23:35;12.27;;;4.85;;
45728;SDS011;31439;53.512;10.206;2023-12-14T08:26:01;10.98;;;5.03;;
45728;SDS011;31439;53.512;10.206;2023-12-14T08:28:26;10.60;;;5.60;;
45728;SDS011;31439;53.512;10.206;2023-12-14T08:30:52;11.20;;;4.53;;
45728;SDS011;31439;53.512;10.206;2023-12-14T08:33:17;8.90;;;4.78;;
45728;SDS011;31439;53.512;10.206;2023-12-14T08:35:43;10.02;;;5.00;;
45728;SDS011;31439;53.512;10.206;2023-12-14T08:38:09;8.43;;;4.70;;
45728;SDS011;31439;53.512;10.206;2023-12-14T08:40:36;11.13;;;4.75;;
45728;SDS011;31439;53.512;10.206;2023-12-14T08:43:02;8.90;;;4.88;;
45728;SDS011;31439;53.512;10.206;2023-12-14T08:45:28;10.48;;;5.20;;
45728;SDS011;31439;53.512;10.206;2023-12-14T08:47:56;11.30;;;6.00;;
45728;SDS011;31439;53.512;10.206;2023-12-14T08:50:22;11.00;;;6.35;;
45728;SDS011;31439;53.512;10.206;2023-12-14T08:52:47;11.32;;;6.70;;
45728;SDS011;31439;53.512;10.206;2023-12-14T08:55:16;8.63;;;5.38;;
45728;SDS011;31439;53.512;10.206;2023-12-14T08:57:42;8.85;;;4.85;;
45728;SDS011;31439;53.512;10.206;2023-12-14T09:00:15;12.10;;;4.80;;
45728;SDS011;31439;53.512;10.206;2023-12-14T18:09:17;15.80;;;6.93;;
45728;SDS011;31439;53.512;10.206;2023-12-14T18:11:43;12.35;;;7.05;;
45728;SDS011;31439;53.512;10.206;2023-12-14T18:14:08;14.13;;;6.97;;
45728;SDS011;31439;53.512;10.206;2023-12-14T18:16:35;12.63;;;7.25;;
45728;SDS011;31439;53.512;10.206;2023-12-14T18:22:45;14.63;;;6.75;;
45728;SDS011;31439;53.512;10.206;2023-12-14T18:25:11;10.98;;;7.05;;
45728;SDS011;31439;53.512;10.206;2023-12-14T18:27:37;13.48;;;7.50;;
45728;SDS011;31439;53.512;10.206;2023-12-14T18:30:04;12.80;;;7.28;;
45728;SDS011;31439;53.512;10.206;2023-12-14T18:32:30;12.85;;;7.07;;
45728;SDS011;31439;53.512;10.206;2023-12-14T18:34:56;12.85;;;7.90;;
45728;SDS011;31439;53.512;10.206;2023-12-14T18:37:22;11.95;;;7.47;;
45728;SDS011;31439;53.512;10.206;2023-12-14T18:39:47;11.70;;;6.93;;
45728;SDS011;31439;53.512;10.206;2023-12-14T18:42:13;12.52;;;7.03;;
45728;SDS011;31439;53.512;10.206;2023-12-14T18:44:39;10.55;;;6.85;;
45728;SDS011;31439;53.512;10.206;2023-12-14T18:47:06;12.13;;;7.18;;
45728;SDS011;31439;53.512;10.206;2023-12-14T18:49:32;10.25;;;6.38;;
45728;SDS011;31439;53.512;10.206;2023-12-14T18:51:58;11.43;;;6.70;;
45728;SDS011;31439;53.512;10.206;2023-12-14T18:54:25;11.45;;;6.68;;
45728;SDS011;31439;53.512;10.206;2023-12-14T18:56:54;15.00;;;6.88;;
45728;SDS011;31439;53.512;10.206;2023-12-14T18:59:19;10.55;;;6.97;;
45728;SDS011;31439;53.512;10.206;2023-12-14T19:01:48;11.30;;;6.72;;
45728;SDS011;31439;53.512;10.206;2023-12-14T19:04:14;11.25;;;7.43;;
45728;SDS011;31439;53.512;10.206;2023-12-14T19:06:41;13.07;;;7.63;;
45728;SDS011;31439;53.512;10.206;2023-12-14T19:09:06;17.15;;;9.07;;
45728;SDS011;31439;53.512;10.206;2023-12-14T19:11:32;18.40;;;9.88;;
45728;SDS011;31439;53.512;10.206;2023-12-14T19:13:58;14.05;;;9.48;;
45728;SDS011;31439;53.512;10.206;2023-12-14T19:16:27;14.73;;;9.02;;
45728;SDS011;31439;53.512;10.206;2023-12-14T19:18:58;16.27;;;9.02;;
45728;SDS011;31439;53.512;10.206;2023-12-14T19:21:27;13.30;;;8.10;;
45728;SDS011;31439;53.512;10.206;2023-12-14T19:23:53;13.93;;;8.95;;
45728;SDS011;31439;53.512;10.206;2023-12-14T19:26:19;13.85;;;8.60;;
45728;SDS011;31439;53.512;10.206;2023-12-14T19:28:46;12.88;;;8.63;;
45728;SDS011;31439;53.512;10.206;2023-12-14T19:31:12;13.48;;;8.73;;
45728;SDS011;31439;53.512;10.206;2023-12-14T19:33:42;14.60;;;9.55;;
45728;SDS011;31439;53.512;10.206;2023-12-14T19:36:08;18.75;;;9.38;;
45728;SDS011;31439;53.512;10.206;2023-12-14T19:38:38;14.30;;;8.70;;
45728;SDS011;31439;53.512;10.206;2023-12-14T19:41:07;14.00;;;8.88;;
45728;SDS011;31439;53.512;10.206;2023-12-14T19:43:34;17.23;;;10.65;;
45728;SDS011;31439;53.512;10.206;2023-12-14T19:46:00;14.02;;;9.63;;
45728;SDS011;31439;53.512;10.206;2023-12-14T19:48:26;15.82;;;10.50;;
45728;SDS011;31439;53.512;10.206;2023-12-14T19:50:52;17.85;;;11.43;;
45728;SDS011;31439;53.512;10.206;2023-12-14T19:53:17;16.92;;;10.20;;
45728;SDS011;31439;53.512;10.206;2023-12-14T19:55:43;15.85;;;9.43;;
45728;SDS011;31439;53.512;10.206;2023-12-14T19:58:11;16.25;;;9.80;;
45728;SDS011;31439;53.512;10.206;2023-12-14T20:00:37;16.48;;;9.25;;
45728;SDS011;31439;53.512;10.206;2023-12-14T20:03:02;14.80;;;9.50;;
45728;SDS011;31439;53.512;10.206;2023-12-14T20:05:28;17.13;;;10.38;;
45728;SDS011;31439;53.512;10.206;2023-12-14T20:07:53;17.77;;;10.35;;
45728;SDS011;31439;53.512;10.206;2023-12-14T20:10:19;21.88;;;12.38;;
45728;SDS011;31439;53.512;10.206;2023-12-14T20:12:47;20.98;;;12.55;;
45728;SDS011;31439;53.512;10.206;2023-12-14T20:15:13;19.33;;;11.35;;
45728;SDS011;31439;53.512;10.206;2023-12-14T20:17:39;19.08;;;11.77;;
45728;SDS011;31439;53.512;10.206;2023-12-14T20:20:05;19.40;;;11.50;;
45728;SDS011;31439;53.512;10.206;2023-12-14T20:22:32;18.85;;;11.52;;
45728;SDS011;31439;53.512;10.206;2023-12-14T20:25:00;21.95;;;11.88;;
45728;SDS011;31439;53.512;10.206;2023-12-14T20:27:27;18.88;;;11.80;;
45728;SDS011;31439;53.512;10.206;2023-12-14T20:29:52;16.60;;;10.98;;
45728;SDS011;31439;53.512;10.206;2023-12-14T20:32:21;17.88;;;11.10;;
45728;SDS011;31439;53.512;10.206;2023-12-14T20:34:47;19.60;;;11.52;;
45728;SDS011;31439;53.512;10.206;2023-12-14T20:37:15;16.30;;;11.63;;
45728;SDS011;31439;53.512;10.206;2023-12-14T20:39:44;21.83;;;12.02;;
45728;SDS011;31439;53.512;10.206;2023-12-14T20:42:09;23.20;;;12.07;;
45728;SDS011;31439;53.512;10.206;2023-12-14T20:44:35;17.92;;;10.85;;
45728;SDS011;31439;53.512;10.206;2023-12-14T20:47:03;19.85;;;11.48;;
45728;SDS011;31439;53.512;10.206;2023-12-14T20:49:28;16.55;;;11.13;;
45728;SDS011;31439;53.512;10.206;2023-12-14T20:51:54;21.13;;;11.05;;
45728;SDS011;31439;53.512;10.206;2023-12-14T20:54:19;17.55;;;10.93;;
45728;SDS011;31439;53.512;10.206;2023-12-14T20:56:45;19.10;;;11.30;;
45728;SDS011;31439;53.512;10.206;2023-12-14T20:59:11;20.52;;;11.93;;
45728;SDS011;31439;53.512;10.206;2023-12-14T21:01:36;18.45;;;10.88;;
45728;SDS011;31439;53.512;10.206;2023-12-14T21:04:02;18.15;;;10.98;;
45728;SDS011;31439;53.512;10.206;2023-12-14T21:06:28;19.67;;;11.38;;
45728;SDS011;31439;53.512;10.206;2023-12-14T21:08:53;17.92;;;10.80;;
45728;SDS011;31439;53.512;10.206;2023-12-14T21:11:19;18.38;;;11.57;;
45728;SDS011;31439;53.512;10.206;2023-12-14T21:13:50;18.60;;;10.95;;
45728;SDS011;31439;53.512;10.206;2023-12-14T21:16:18;17.73;;;11.07;;
45728;SDS011;31439;53.512;10.206;2023-12-14T21:18:44;18.45;;;11.20;;
45728;SDS011;31439;53.512;10.206;2023-12-14T21:21:11;21.45;;;11.13;;
45728;SDS011;31439;53.512;10.206;2023-12-14T21:23:38;22.63;;;10.63;;
45728;SDS011;31439;53.512;10.206;2023-12-14T21:26:03;17.35;;;10.93;;
45728;SDS011;31439;53.512;10.206;2023-12-14T21:28:32;21.35;;;11.85;;
45728;SDS011;31439;53.512;10.206;2023-12-14T21:30:59;19.80;;;11.25;;
45728;SDS011;31439;53.512;10.206;2023-12-14T21:33:26;20.90;;;11.70;;
45728;SDS011;31439;53.512;10.206;2023-12-14T21:35:52;19.67;;;11.02;;
45728;SDS011;31439;53.512;10.206;2023-12-14T21:38:20;18.77;;;10.73;;
45728;SDS011;31439;53.512;10.206;2023-12-14T21:40:46;18.40;;;11.35;;
45728;SDS011;31439;53.512;10.206;2023-12-14T21:43:13;19.67;;;11.32;;
45728;SDS011;31439;53.512;10.206;2023-12-14T21:45:39;20.33;;;11.68;;
45728;SDS011;31439;53.512;10.206;2023-12-14T21:48:05;20.30;;;12.25;;
45728;SDS011;31439;53.512;10.206;2023-12-14T21:50:30;20.63;;;12.13;;
45728;SDS011;31439;53.512;10.206;2023-12-14T21:52:56;20.85;;;12.43;;
45728;SDS011;31439;53.512;10.206;2023-12-14T21:55:22;21.00;;;12.35;;
45728;SDS011;31439;53.512;10.206;2023-12-14T21:57:48;23.38;;;14.05;;
45728;SDS011;31439;53.512;10.206;2023-12-14T22:00:13;26.90;;;17.02;;
45728;SDS011;31439;53.512;10.206;2023-12-14T22:02:40;25.77;;;14.65;;
45728;SDS011;31439;53.512;10.206;2023-12-14T22:05:06;23.77;;;13.65;;
45728;SDS011;31439;53.512;10.206;2023-12-14T22:07:32;20.70;;;12.88;;
45728;SDS011;31439;53.512;10.206;2023-12-14T22:09:58;19.10;;;12.00;;
45728;SDS011;31439;53.512;10.206;2023-12-14T22:12:24;20.30;;;12.15;;
45728;SDS011;31439;53.512;10.206;2023-12-14T22:14:50;19.35;;;11.45;;
45728;SDS011;31439;53.512;10.206;2023-12-14T22:17:16;20.08;;;11.60;;
45728;SDS011;31439;53.512;10.206;2023-12-14T22:19:41;19.98;;;11.55;;
45728;SDS011;31439;53.512;10.206;2023-12-14T22:22:07;21.23;;;11.75;;
45728;SDS011;31439;53.512;10.206;2023-12-14T22:24:32;21.30;;;12.25;;
45728;SDS011;31439;53.512;10.206;2023-12-14T22:26:58;21.30;;;11.63;;
45728;SDS011;31439;53.512;10.206;2023-12-14T22:29:25;18.00;;;10.77;;
45728;SDS011;31439;53.512;10.206;2023-12-14T22:31:53;20.00;;;11.90;;
45728;SDS011;31439;53.512;10.206;2023-12-14T22:34:19;21.52;;;11.68;;
45728;SDS011;31439;53.512;10.206;2023-12-14T22:36:44;18.60;;;11.82;;
45728;SDS011;31439;53.512;10.206;2023-12-14T22:39:11;17.77;;;11.98;;
45728;SDS011;31439;53.512;10.206;2023-12-14T22:41:37;17.50;;;11.77;;
45728;SDS011;31439;53.512;10.206;2023-12-14T22:44:05;17.45;;;12.05;;
45728;SDS011;31439;53.512;10.206;2023-12-14T22:46:34;18.50;;;11.63;;
45728;SDS011;31439;53.512;10.206;2023-12-14T22:51:34;18.92;;;11.77;;
45728;SDS011;31439;53.512;10.206;2023-12-14T22:54:22;17.70;;;11.48;;
45728;SDS011;31439;53.512;10.206;2023-12-14T22:56:48;19.50;;;12.00;;
45728;SDS011;31439;53.512;10.206;2023-12-14T22:59:13;18.02;;;12.05;;
45728;SDS011;31439;53.512;10.206;2023-12-14T23:01:39;19.10;;;12.60;;
45728;SDS011;31439;53.512;10.206;2023-12-14T23:04:05;17.60;;;11.88;;
45728;SDS011;31439;53.512;10.206;2023-12-14T23:06:31;19.00;;;11.93;;
45728;SDS011;31439;53.512;10.206;2023-12-14T23:08:58;21.52;;;12.05;;
45728;SDS011;31439;53.512;10.206;2023-12-14T23:11:24;18.10;;;11.50;;
45728;SDS011;31439;53.512;10.206;2023-12-14T23:13:49;21.33;;;12.38;;
45728;SDS011;31439;53.512;10.206;2023-12-14T23:16:15;20.27;;;11.43;;
45728;SDS011;31439;53.512;10.206;2023-12-14T23:18:41;20.83;;;11.98;;
45728;SDS011;31439;53.512;10.206;2023-12-14T23:21:07;19.48;;;12.02;;
45728;SDS011;31439;53.512;10.206;2023-12-14T23:23:32;20.70;;;11.75;;
45728;SDS011;31439;53.512;10.206;2023-12-14T23:26:01;17.60;;;12.15;;
45728;SDS011;31439;53.512;10.206;2023-12-14T23:28:26;20.85;;;11.65;;
45728;SDS011;31439;53.512;10.206;2023-12-14T23:30:52;21.05;;;11.48;;
45728;SDS011;31439;53.512;10.206;2023-12-14T23:33:18;20.95;;;12.43;;